sensor_id;sensor_type;location;lat;lon;timestamp;P1;durP1;ratioP1;P2;durP2;ratioP2
53931;SDS011;39844;52.496;13.482;2023-05-20T00:01:58;4.60;;;2.07;;
53931;SDS011;39844;52.496;13.482;2023-05-20T00:04:23;3.63;;;1.93;;
53931;SDS011;39844;52.496;13.482;2023-05-20T00:06:49;1.90;;;1.80;;
53931;SDS011;39844;52.496;13.482;2023-05-20T00:09:14;3.13;;;1.83;;
53931;SDS011;39844;52.496;13.482;2023-05-20T00:11:39;3.87;;;2.20;;
53931;SDS011;39844;52.496;13.482;2023-05-20T00:14:04;4.43;;;2.40;;
53931;SDS011;39844;52.496;13.482;2023-05-20T00:16:30;1.83;;;1.73;;
53931;SDS011;39844;52.496;13.482;2023-05-20T00:18:55;2.07;;;1.97;;
53931;SDS011;39844;52.496;13.482;2023-05-20T00:21:20;2.00;;;1.80;;
53931;SDS011;39844;52.496;13.482;2023-05-20T00:23:46;2.47;;;2.27;;
53931;SDS011;39844;52.496;13.482;2023-05-20T00:26:11;1.80;;;1.70;;
53931;SDS011;39844;52.496;13.482;2023-05-20T00:28:36;3.97;;;1.97;;
53931;SDS011;39844;52.496;13.482;2023-05-20T00:31:02;2.00;;;1.90;;
53931;SDS011;39844;52.496;13.482;2023-05-20T00:33:27;2.10;;;1.87;;
53931;SDS011;39844;52.496;13.482;2023-05-20T00:35:52;1.83;;;1.73;;
53931;SDS011;39844;52.496;13.482;2023-05-20T00:38:17;1.63;;;1.53;;
53931;SDS011;39844;52.496;13.482;2023-05-20T00:40:43;1.83;;;1.73;;
53931;SDS011;39844;52.496;13.482;2023-05-20T00:43:08;2.70;;;1.80;;
53931;SDS011;39844;52.496;13.482;2023-05-20T00:45:34;1.80;;;1.70;;
53931;SDS011;39844;52.496;13.482;2023-05-20T00:47:59;2.63;;;1.97;;
53931;SDS011;39844;52.496;13.482;2023-05-20T00:50:26;2.17;;;1.77;;
53931;SDS011;39844;52.496;13.482;2023-05-20T00:52:52;1.97;;;1.87;;
53931;SDS011;39844;52.496;13.482;2023-05-20T00:55:17;2.33;;;1.93;;
53931;SDS011;39844;52.496;13.482;2023-05-20T00:57:43;4.13;;;1.87;;
53931;SDS011;39844;52.496;13.482;2023-05-20T01:00:08;2.27;;;2.07;;
53931;SDS011;39844;52.496;13.482;2023-05-20T01:02:34;3.30;;;2.10;;
53931;SDS011;39844;52.496;13.482;2023-05-20T01:04:59;3.60;;;2.40;;
53931;SDS011;39844;52.496;13.482;2023-05-20T01:07:24;2.17;;;1.97;;
53931;SDS011;39844;52.496;13.482;2023-05-20T01:09:50;2.30;;;1.90;;
53931;SDS011;39844;52.496;13.482;2023-05-20T01:12:25;2.40;;;2.03;;
53931;SDS011;39844;52.496;13.482;2023-05-20T01:14:57;3.03;;;1.90;;
53931;SDS011;39844;52.496;13.482;2023-05-20T01:17:25;3.17;;;2.30;;
53931;SDS011;39844;52.496;13.482;2023-05-20T01:19:54;2.87;;;2.10;;
53931;SDS011;39844;52.496;13.482;2023-05-20T01:22:23;3.03;;;2.13;;
53931;SDS011;39844;52.496;13.482;2023-05-20T01:24:50;2.57;;;2.10;;
53931;SDS011;39844;52.496;13.482;2023-05-20T01:27:16;3.80;;;2.50;;
53931;SDS011;39844;52.496;13.482;2023-05-20T01:29:41;4.17;;;1.87;;
53931;SDS011;39844;52.496;13.482;2023-05-20T01:32:18;2.30;;;2.10;;
53931;SDS011;39844;52.496;13.482;2023-05-20T01:34:49;1.87;;;1.77;;
53931;SDS011;39844;52.496;13.482;2023-05-20T01:37:16;3.20;;;1.73;;
53931;SDS011;39844;52.496;13.482;2023-05-20T01:39:43;2.53;;;2.27;;
53931;SDS011;39844;52.496;13.482;2023-05-20T01:42:10;6.53;;;2.33;;
53931;SDS011;39844;52.496;13.482;2023-05-20T01:44:37;3.33;;;1.87;;
53931;SDS011;39844;52.496;13.482;2023-05-20T01:47:03;2.43;;;2.03;;
53931;SDS011;39844;52.496;13.482;2023-05-20T01:49:28;7.83;;;2.53;;
53931;SDS011;39844;52.496;13.482;2023-05-20T01:51:53;2.33;;;1.83;;
53931;SDS011;39844;52.496;13.482;2023-05-20T01:54:19;2.47;;;2.10;;
53931;SDS011;39844;52.496;13.482;2023-05-20T01:56:45;1.90;;;1.80;;
53931;SDS011;39844;52.496;13.482;2023-05-20T01:59:10;3.03;;;2.17;;
53931;SDS011;39844;52.496;13.482;2023-05-20T02:01:36;2.10;;;2.00;;
53931;SDS011;39844;52.496;13.482;2023-05-20T02:04:02;3.73;;;2.13;;
53931;SDS011;39844;52.496;13.482;2023-05-20T02:06:27;2.13;;;1.93;;
53931;SDS011;39844;52.496;13.482;2023-05-20T02:08:52;2.37;;;2.10;;
53931;SDS011;39844;52.496;13.482;2023-05-20T02:11:17;2.00;;;1.90;;
53931;SDS011;39844;52.496;13.482;2023-05-20T02:13:43;2.20;;;2.00;;
53931;SDS011;39844;52.496;13.482;2023-05-20T02:16:08;2.47;;;2.27;;
53931;SDS011;39844;52.496;13.482;2023-05-20T02:18:33;2.50;;;1.83;;
53931;SDS011;39844;52.496;13.482;2023-05-20T02:21:02;2.30;;;1.90;;
53931;SDS011;39844;52.496;13.482;2023-05-20T02:23:27;4.50;;;1.93;;
53931;SDS011;39844;52.496;13.482;2023-05-20T02:25:52;2.07;;;1.97;;
53931;SDS011;39844;52.496;13.482;2023-05-20T02:28:18;1.77;;;1.50;;
53931;SDS011;39844;52.496;13.482;2023-05-20T02:30:43;2.40;;;1.80;;
53931;SDS011;39844;52.496;13.482;2023-05-20T02:33:08;1.93;;;1.63;;
53931;SDS011;39844;52.496;13.482;2023-05-20T02:35:34;3.13;;;1.97;;
53931;SDS011;39844;52.496;13.482;2023-05-20T02:37:59;1.83;;;1.73;;
53931;SDS011;39844;52.496;13.482;2023-05-20T02:40:24;2.73;;;2.10;;
53931;SDS011;39844;52.496;13.482;2023-05-20T02:42:49;2.20;;;1.60;;
53931;SDS011;39844;52.496;13.482;2023-05-20T02:45:15;3.23;;;1.97;;
53931;SDS011;39844;52.496;13.482;2023-05-20T02:47:40;2.47;;;2.23;;
53931;SDS011;39844;52.496;13.482;2023-05-20T02:50:05;2.00;;;1.87;;
53931;SDS011;39844;52.496;13.482;2023-05-20T02:52:31;2.47;;;1.77;;
53931;SDS011;39844;52.496;13.482;2023-05-20T02:54:57;1.70;;;1.60;;
53931;SDS011;39844;52.496;13.482;2023-05-20T02:57:22;3.37;;;2.23;;
53931;SDS011;39844;52.496;13.482;2023-05-20T02:59:48;2.33;;;2.00;;
53931;SDS011;39844;52.496;13.482;2023-05-20T03:02:13;5.63;;;2.00;;
53931;SDS011;39844;52.496;13.482;2023-05-20T03:04:38;2.17;;;2.00;;
53931;SDS011;39844;52.496;13.482;2023-05-20T03:07:04;2.63;;;2.10;;
53931;SDS011;39844;52.496;13.482;2023-05-20T03:09:30;2.53;;;1.83;;
53931;SDS011;39844;52.496;13.482;2023-05-20T03:11:56;2.50;;;2.10;;
53931;SDS011;39844;52.496;13.482;2023-05-20T03:14:21;1.90;;;1.80;;
53931;SDS011;39844;52.496;13.482;2023-05-20T03:16:46;3.00;;;2.40;;
53931;SDS011;39844;52.496;13.482;2023-05-20T03:19:11;2.40;;;2.20;;
53931;SDS011;39844;52.496;13.482;2023-05-20T03:21:37;2.00;;;1.80;;
53931;SDS011;39844;52.496;13.482;2023-05-20T03:24:02;3.30;;;2.23;;
53931;SDS011;39844;52.496;13.482;2023-05-20T03:26:27;2.00;;;1.90;;
53931;SDS011;39844;52.496;13.482;2023-05-20T03:28:53;1.97;;;1.83;;
53931;SDS011;39844;52.496;13.482;2023-05-20T03:31:18;2.47;;;2.03;;
53931;SDS011;39844;52.496;13.482;2023-05-20T03:33:43;3.30;;;2.10;;
53931;SDS011;39844;52.496;13.482;2023-05-20T03:36:09;2.37;;;2.00;;
53931;SDS011;39844;52.496;13.482;2023-05-20T03:38:34;3.90;;;2.13;;
53931;SDS011;39844;52.496;13.482;2023-05-20T03:40:59;2.90;;;2.30;;
53931;SDS011;39844;52.496;13.482;2023-05-20T03:43:24;1.83;;;1.70;;
53931;SDS011;39844;52.496;13.482;2023-05-20T03:45:50;2.30;;;2.00;;
53931;SDS011;39844;52.496;13.482;2023-05-20T03:48:15;2.70;;;2.20;;
53931;SDS011;39844;52.496;13.482;2023-05-20T03:50:40;4.10;;;2.07;;
53931;SDS011;39844;52.496;13.482;2023-05-20T03:53:05;3.10;;;2.40;;
53931;SDS011;39844;52.496;13.482;2023-05-20T03:55:31;2.40;;;2.10;;
53931;SDS011;39844;52.496;13.482;2023-05-20T03:57:56;2.63;;;2.43;;
53931;SDS011;39844;52.496;13.482;2023-05-20T04:00:21;2.50;;;2.17;;
53931;SDS011;39844;52.496;13.482;2023-05-20T04:02:47;2.30;;;1.80;;
53931;SDS011;39844;52.496;13.482;2023-05-20T04:05:12;5.43;;;2.30;;
53931;SDS011;39844;52.496;13.482;2023-05-20T04:07:37;2.23;;;1.60;;
53931;SDS011;39844;52.496;13.482;2023-05-20T04:10:03;1.80;;;1.70;;
53931;SDS011;39844;52.496;13.482;2023-05-20T04:12:29;2.93;;;2.30;;
53931;SDS011;39844;52.496;13.482;2023-05-20T04:14:54;3.37;;;2.10;;
53931;SDS011;39844;52.496;13.482;2023-05-20T04:17:20;5.20;;;1.97;;
53931;SDS011;39844;52.496;13.482;2023-05-20T04:19:45;3.17;;;1.90;;
53931;SDS011;39844;52.496;13.482;2023-05-20T04:22:10;3.27;;;2.10;;
53931;SDS011;39844;52.496;13.482;2023-05-20T04:24:35;4.00;;;2.37;;
53931;SDS011;39844;52.496;13.482;2023-05-20T04:27:01;3.00;;;2.10;;
53931;SDS011;39844;52.496;13.482;2023-05-20T04:29:26;3.47;;;2.23;;
53931;SDS011;39844;52.496;13.482;2023-05-20T04:31:51;2.10;;;2.00;;
53931;SDS011;39844;52.496;13.482;2023-05-20T04:34:17;2.30;;;2.00;;
53931;SDS011;39844;52.496;13.482;2023-05-20T04:36:42;3.20;;;2.10;;
53931;SDS011;39844;52.496;13.482;2023-05-20T04:39:07;4.03;;;2.30;;
53931;SDS011;39844;52.496;13.482;2023-05-20T04:41:32;2.70;;;2.40;;
53931;SDS011;39844;52.496;13.482;2023-05-20T04:43:58;3.30;;;2.13;;
53931;SDS011;39844;52.496;13.482;2023-05-20T04:46:23;2.10;;;2.00;;
53931;SDS011;39844;52.496;13.482;2023-05-20T04:48:48;4.50;;;2.00;;
53931;SDS011;39844;52.496;13.482;2023-05-20T04:51:13;2.33;;;2.00;;
53931;SDS011;39844;52.496;13.482;2023-05-20T04:53:39;2.47;;;2.27;;
53931;SDS011;39844;52.496;13.482;2023-05-20T04:56:04;2.60;;;2.40;;
53931;SDS011;39844;52.496;13.482;2023-05-20T04:58:30;2.50;;;2.20;;
53931;SDS011;39844;52.496;13.482;2023-05-20T05:00:55;2.73;;;2.47;;
53931;SDS011;39844;52.496;13.482;2023-05-20T05:03:20;4.47;;;2.40;;
53931;SDS011;39844;52.496;13.482;2023-05-20T05:05:45;2.27;;;2.07;;
53931;SDS011;39844;52.496;13.482;2023-05-20T05:08:11;3.83;;;2.20;;
53931;SDS011;39844;52.496;13.482;2023-05-20T05:10:36;2.37;;;2.00;;
53931;SDS011;39844;52.496;13.482;2023-05-20T05:13:02;2.00;;;1.90;;
53931;SDS011;39844;52.496;13.482;2023-05-20T05:15:27;3.30;;;2.30;;
53931;SDS011;39844;52.496;13.482;2023-05-20T05:17:53;3.13;;;2.03;;
53931;SDS011;39844;52.496;13.482;2023-05-20T05:20:18;3.10;;;2.17;;
53931;SDS011;39844;52.496;13.482;2023-05-20T05:22:44;2.90;;;2.33;;
53931;SDS011;39844;52.496;13.482;2023-05-20T05:25:10;3.73;;;2.40;;
53931;SDS011;39844;52.496;13.482;2023-05-20T05:27:36;2.40;;;2.20;;
53931;SDS011;39844;52.496;13.482;2023-05-20T05:30:02;2.53;;;2.33;;
53931;SDS011;39844;52.496;13.482;2023-05-20T05:32:29;2.60;;;2.13;;
53931;SDS011;39844;52.496;13.482;2023-05-20T05:34:54;3.67;;;2.20;;
53931;SDS011;39844;52.496;13.482;2023-05-20T05:37:19;2.20;;;2.10;;
53931;SDS011;39844;52.496;13.482;2023-05-20T05:39:45;2.70;;;2.43;;
53931;SDS011;39844;52.496;13.482;2023-05-20T05:42:10;5.43;;;2.77;;
53931;SDS011;39844;52.496;13.482;2023-05-20T05:44:35;4.20;;;2.43;;
53931;SDS011;39844;52.496;13.482;2023-05-20T05:47:01;2.83;;;2.40;;
53931;SDS011;39844;52.496;13.482;2023-05-20T05:49:26;2.83;;;2.60;;
53931;SDS011;39844;52.496;13.482;2023-05-20T05:51:51;6.03;;;2.60;;
53931;SDS011;39844;52.496;13.482;2023-05-20T05:54:17;2.67;;;2.47;;
53931;SDS011;39844;52.496;13.482;2023-05-20T05:56:42;3.13;;;2.83;;
53931;SDS011;39844;52.496;13.482;2023-05-20T05:59:07;3.00;;;2.70;;
53931;SDS011;39844;52.496;13.482;2023-05-20T06:01:33;2.30;;;2.10;;
53931;SDS011;39844;52.496;13.482;2023-05-20T06:03:58;2.47;;;2.27;;
53931;SDS011;39844;52.496;13.482;2023-05-20T06:06:25;3.30;;;2.50;;
53931;SDS011;39844;52.496;13.482;2023-05-20T06:08:50;3.97;;;2.60;;
53931;SDS011;39844;52.496;13.482;2023-05-20T06:11:16;3.43;;;2.60;;
53931;SDS011;39844;52.496;13.482;2023-05-20T06:13:41;4.57;;;2.70;;
53931;SDS011;39844;52.496;13.482;2023-05-20T06:16:06;5.60;;;2.70;;
53931;SDS011;39844;52.496;13.482;2023-05-20T06:18:31;3.70;;;2.40;;
53931;SDS011;39844;52.496;13.482;2023-05-20T06:20:57;3.17;;;2.43;;
53931;SDS011;39844;52.496;13.482;2023-05-20T06:23:23;2.40;;;2.20;;
53931;SDS011;39844;52.496;13.482;2023-05-20T06:25:48;4.63;;;2.50;;
53931;SDS011;39844;52.496;13.482;2023-05-20T06:28:14;5.13;;;2.40;;
53931;SDS011;39844;52.496;13.482;2023-05-20T06:30:40;3.37;;;2.63;;
53931;SDS011;39844;52.496;13.482;2023-05-20T06:33:05;2.57;;;2.37;;
53931;SDS011;39844;52.496;13.482;2023-05-20T06:35:31;2.60;;;2.13;;
53931;SDS011;39844;52.496;13.482;2023-05-20T06:37:56;2.60;;;2.40;;
53931;SDS011;39844;52.496;13.482;2023-05-20T06:40:21;4.13;;;2.53;;
53931;SDS011;39844;52.496;13.482;2023-05-20T06:42:46;5.63;;;2.90;;
53931;SDS011;39844;52.496;13.482;2023-05-20T06:45:12;2.70;;;2.50;;
53931;SDS011;39844;52.496;13.482;2023-05-20T06:47:37;2.97;;;2.67;;
53931;SDS011;39844;52.496;13.482;2023-05-20T06:50:02;2.60;;;2.40;;
53931;SDS011;39844;52.496;13.482;2023-05-20T06:52:28;3.57;;;2.53;;
53931;SDS011;39844;52.496;13.482;2023-05-20T06:54:53;5.03;;;2.27;;
53931;SDS011;39844;52.496;13.482;2023-05-20T06:57:18;3.00;;;2.67;;
53931;SDS011;39844;52.496;13.482;2023-05-20T06:59:44;5.30;;;2.53;;
53931;SDS011;39844;52.496;13.482;2023-05-20T07:02:09;6.70;;;2.60;;
53931;SDS011;39844;52.496;13.482;2023-05-20T07:04:35;2.93;;;2.57;;
53931;SDS011;39844;52.496;13.482;2023-05-20T07:07:00;4.90;;;3.03;;
53931;SDS011;39844;52.496;13.482;2023-05-20T07:09:25;4.90;;;2.53;;
53931;SDS011;39844;52.496;13.482;2023-05-20T07:11:50;3.37;;;2.80;;
53931;SDS011;39844;52.496;13.482;2023-05-20T07:14:16;2.43;;;2.23;;
53931;SDS011;39844;52.496;13.482;2023-05-20T07:16:41;2.47;;;2.27;;
53931;SDS011;39844;52.496;13.482;2023-05-20T07:19:06;3.47;;;2.40;;
53931;SDS011;39844;52.496;13.482;2023-05-20T07:21:32;2.30;;;2.20;;
53931;SDS011;39844;52.496;13.482;2023-05-20T07:23:57;5.17;;;2.43;;
53931;SDS011;39844;52.496;13.482;2023-05-20T07:26:22;2.47;;;2.37;;
53931;SDS011;39844;52.496;13.482;2023-05-20T07:28:48;6.37;;;2.60;;
53931;SDS011;39844;52.496;13.482;2023-05-20T07:31:13;2.73;;;2.50;;
53931;SDS011;39844;52.496;13.482;2023-05-20T07:33:40;4.90;;;2.23;;
53931;SDS011;39844;52.496;13.482;2023-05-20T07:36:06;4.10;;;2.83;;
53931;SDS011;39844;52.496;13.482;2023-05-20T07:38:31;2.80;;;2.23;;
53931;SDS011;39844;52.496;13.482;2023-05-20T07:40:56;2.53;;;2.33;;
53931;SDS011;39844;52.496;13.482;2023-05-20T07:43:22;2.50;;;2.30;;
53931;SDS011;39844;52.496;13.482;2023-05-20T07:45:47;4.87;;;2.90;;
53931;SDS011;39844;52.496;13.482;2023-05-20T07:48:12;2.50;;;2.30;;
53931;SDS011;39844;52.496;13.482;2023-05-20T07:50:38;4.70;;;2.67;;
53931;SDS011;39844;52.496;13.482;2023-05-20T07:53:04;2.77;;;2.50;;
53931;SDS011;39844;52.496;13.482;2023-05-20T07:55:32;4.17;;;2.97;;
53931;SDS011;39844;52.496;13.482;2023-05-20T07:57:58;2.97;;;2.50;;
53931;SDS011;39844;52.496;13.482;2023-05-20T08:00:25;2.83;;;2.50;;
53931;SDS011;39844;52.496;13.482;2023-05-20T08:02:50;2.53;;;2.30;;
53931;SDS011;39844;52.496;13.482;2023-05-20T08:05:15;3.30;;;2.60;;
53931;SDS011;39844;52.496;13.482;2023-05-20T08:07:41;2.93;;;2.37;;
53931;SDS011;39844;52.496;13.482;2023-05-20T08:10:06;3.50;;;2.60;;
53931;SDS011;39844;52.496;13.482;2023-05-20T08:12:32;4.77;;;2.70;;
53931;SDS011;39844;52.496;13.482;2023-05-20T08:14:57;2.83;;;2.43;;
53931;SDS011;39844;52.496;13.482;2023-05-20T08:17:23;3.07;;;2.40;;
53931;SDS011;39844;52.496;13.482;2023-05-20T08:19:48;3.87;;;2.97;;
53931;SDS011;39844;52.496;13.482;2023-05-20T08:22:13;2.67;;;2.47;;
53931;SDS011;39844;52.496;13.482;2023-05-20T08:24:39;2.47;;;2.27;;
53931;SDS011;39844;52.496;13.482;2023-05-20T08:27:04;2.60;;;2.40;;
53931;SDS011;39844;52.496;13.482;2023-05-20T08:29:29;5.03;;;2.77;;
53931;SDS011;39844;52.496;13.482;2023-05-20T08:31:55;3.60;;;2.30;;
53931;SDS011;39844;52.496;13.482;2023-05-20T08:34:20;6.57;;;2.80;;
53931;SDS011;39844;52.496;13.482;2023-05-20T08:36:46;2.80;;;2.57;;
53931;SDS011;39844;52.496;13.482;2023-05-20T08:39:11;3.97;;;2.57;;
53931;SDS011;39844;52.496;13.482;2023-05-20T08:41:37;7.67;;;2.73;;
53931;SDS011;39844;52.496;13.482;2023-05-20T08:44:03;2.17;;;2.07;;
53931;SDS011;39844;52.496;13.482;2023-05-20T08:46:30;4.00;;;2.20;;
53931;SDS011;39844;52.496;13.482;2023-05-20T08:48:58;3.30;;;3.10;;
53931;SDS011;39844;52.496;13.482;2023-05-20T08:51:23;4.67;;;2.83;;
53931;SDS011;39844;52.496;13.482;2023-05-20T08:53:51;2.47;;;2.27;;
53931;SDS011;39844;52.496;13.482;2023-05-20T08:56:16;4.97;;;2.57;;
53931;SDS011;39844;52.496;13.482;2023-05-20T08:58:43;2.93;;;2.60;;
53931;SDS011;39844;52.496;13.482;2023-05-20T09:01:08;2.77;;;2.43;;
53931;SDS011;39844;52.496;13.482;2023-05-20T09:03:33;4.53;;;2.77;;
53931;SDS011;39844;52.496;13.482;2023-05-20T09:06:05;2.70;;;2.13;;
53931;SDS011;39844;52.496;13.482;2023-05-20T09:08:32;4.37;;;2.90;;
53931;SDS011;39844;52.496;13.482;2023-05-20T09:10:57;3.47;;;2.67;;
53931;SDS011;39844;52.496;13.482;2023-05-20T09:13:23;3.10;;;2.43;;
53931;SDS011;39844;52.496;13.482;2023-05-20T09:15:50;2.53;;;2.33;;
53931;SDS011;39844;52.496;13.482;2023-05-20T09:18:16;5.43;;;2.60;;
53931;SDS011;39844;52.496;13.482;2023-05-20T09:20:41;2.30;;;2.10;;
53931;SDS011;39844;52.496;13.482;2023-05-20T09:23:07;3.03;;;2.30;;
53931;SDS011;39844;52.496;13.482;2023-05-20T09:25:34;3.33;;;2.87;;
53931;SDS011;39844;52.496;13.482;2023-05-20T09:28:01;5.00;;;2.90;;
53931;SDS011;39844;52.496;13.482;2023-05-20T09:30:28;3.80;;;3.03;;
53931;SDS011;39844;52.496;13.482;2023-05-20T09:32:54;4.37;;;3.57;;
53931;SDS011;39844;52.496;13.482;2023-05-20T09:35:20;3.97;;;3.20;;
53931;SDS011;39844;52.496;13.482;2023-05-20T09:37:46;5.60;;;2.97;;
53931;SDS011;39844;52.496;13.482;2023-05-20T09:40:12;5.67;;;3.50;;
53931;SDS011;39844;52.496;13.482;2023-05-20T09:45:27;5.07;;;3.70;;
53931;SDS011;39844;52.496;13.482;2023-05-20T09:47:53;4.53;;;3.27;;
53931;SDS011;39844;52.496;13.482;2023-05-20T09:50:20;3.73;;;2.93;;
53931;SDS011;39844;52.496;13.482;2023-05-20T09:52:47;3.43;;;3.07;;
53931;SDS011;39844;52.496;13.482;2023-05-20T09:55:13;6.90;;;4.20;;
53931;SDS011;39844;52.496;13.482;2023-05-20T09:57:39;4.80;;;3.80;;
53931;SDS011;39844;52.496;13.482;2023-05-20T10:00:04;5.27;;;3.30;;
53931;SDS011;39844;52.496;13.482;2023-05-20T10:02:32;4.07;;;3.40;;
53931;SDS011;39844;52.496;13.482;2023-05-20T10:04:58;5.57;;;4.00;;
53931;SDS011;39844;52.496;13.482;2023-05-20T10:13:29;5.13;;;3.23;;
53931;SDS011;39844;52.496;13.482;2023-05-20T10:16:15;4.73;;;3.33;;
53931;SDS011;39844;52.496;13.482;2023-05-20T10:21:29;4.80;;;3.93;;
53931;SDS011;39844;52.496;13.482;2023-05-20T10:24:04;4.53;;;3.77;;
53931;SDS011;39844;52.496;13.482;2023-05-20T10:26:34;4.57;;;3.40;;
53931;SDS011;39844;52.496;13.482;2023-05-20T10:29:18;3.23;;;2.93;;
53931;SDS011;39844;52.496;13.482;2023-05-20T10:31:47;9.10;;;4.13;;
53931;SDS011;39844;52.496;13.482;2023-05-20T10:34:14;3.57;;;3.17;;
53931;SDS011;39844;52.496;13.482;2023-05-20T10:36:43;4.30;;;3.50;;
53931;SDS011;39844;52.496;13.482;2023-05-20T10:39:13;5.90;;;3.00;;
53931;SDS011;39844;52.496;13.482;2023-05-20T10:41:39;3.97;;;3.60;;
53931;SDS011;39844;52.496;13.482;2023-05-20T10:44:04;6.67;;;4.20;;
53931;SDS011;39844;52.496;13.482;2023-05-20T10:46:31;4.03;;;3.33;;
53931;SDS011;39844;52.496;13.482;2023-05-20T10:48:58;4.17;;;3.77;;
53931;SDS011;39844;52.496;13.482;2023-05-20T10:51:23;5.77;;;3.93;;
53931;SDS011;39844;52.496;13.482;2023-05-20T10:53:51;5.23;;;3.60;;
53931;SDS011;39844;52.496;13.482;2023-05-20T10:56:17;4.47;;;3.13;;
53931;SDS011;39844;52.496;13.482;2023-05-20T10:58:44;5.27;;;3.40;;
53931;SDS011;39844;52.496;13.482;2023-05-20T11:01:09;4.60;;;3.80;;
53931;SDS011;39844;52.496;13.482;2023-05-20T11:03:35;4.37;;;3.50;;
53931;SDS011;39844;52.496;13.482;2023-05-20T11:06:01;5.90;;;3.93;;
53931;SDS011;39844;52.496;13.482;2023-05-20T11:08:34;5.27;;;3.80;;
53931;SDS011;39844;52.496;13.482;2023-05-20T11:10:59;6.60;;;4.00;;
53931;SDS011;39844;52.496;13.482;2023-05-20T11:13:25;5.87;;;3.73;;
53931;SDS011;39844;52.496;13.482;2023-05-20T11:15:50;4.30;;;3.50;;
53931;SDS011;39844;52.496;13.482;2023-05-20T11:18:15;3.90;;;3.57;;
53931;SDS011;39844;52.496;13.482;2023-05-20T11:20:41;6.70;;;4.27;;
53931;SDS011;39844;52.496;13.482;2023-05-20T11:23:10;4.40;;;3.47;;
53931;SDS011;39844;52.496;13.482;2023-05-20T11:25:36;6.03;;;3.83;;
53931;SDS011;39844;52.496;13.482;2023-05-20T11:28:01;4.00;;;3.37;;
53931;SDS011;39844;52.496;13.482;2023-05-20T11:30:26;3.83;;;3.33;;
53931;SDS011;39844;52.496;13.482;2023-05-20T11:32:55;4.57;;;3.87;;
53931;SDS011;39844;52.496;13.482;2023-05-20T11:35:24;7.80;;;4.05;;
53931;SDS011;39844;52.496;13.482;2023-05-20T11:37:54;4.10;;;3.40;;
53931;SDS011;39844;52.496;13.482;2023-05-20T11:40:22;4.33;;;3.70;;
53931;SDS011;39844;52.496;13.482;2023-05-20T11:42:51;4.93;;;3.87;;
53931;SDS011;39844;52.496;13.482;2023-05-20T11:45:17;5.37;;;3.73;;
53931;SDS011;39844;52.496;13.482;2023-05-20T11:47:42;4.65;;;4.03;;
53931;SDS011;39844;52.496;13.482;2023-05-20T11:50:08;11.23;;;3.90;;
53931;SDS011;39844;52.496;13.482;2023-05-20T11:52:33;6.22;;;3.85;;
53931;SDS011;39844;52.496;13.482;2023-05-20T11:54:59;4.05;;;3.55;;
53931;SDS011;39844;52.496;13.482;2023-05-20T11:57:24;6.18;;;3.95;;
53931;SDS011;39844;52.496;13.482;2023-05-20T11:59:49;3.75;;;3.13;;
53931;SDS011;39844;52.496;13.482;2023-05-20T12:02:15;6.35;;;3.92;;
53931;SDS011;39844;52.496;13.482;2023-05-20T12:04:40;8.68;;;4.63;;
53931;SDS011;39844;52.496;13.482;2023-05-20T12:07:05;4.28;;;3.85;;
53931;SDS011;39844;52.496;13.482;2023-05-20T12:09:30;5.82;;;3.97;;
53931;SDS011;39844;52.496;13.482;2023-05-20T12:11:56;4.38;;;3.97;;
53931;SDS011;39844;52.496;13.482;2023-05-20T12:14:21;3.85;;;3.42;;
53931;SDS011;39844;52.496;13.482;2023-05-20T12:16:46;5.40;;;3.50;;
53931;SDS011;39844;52.496;13.482;2023-05-20T12:19:12;6.55;;;4.60;;
53931;SDS011;39844;52.496;13.482;2023-05-20T12:21:37;4.63;;;3.67;;
53931;SDS011;39844;52.496;13.482;2023-05-20T12:24:02;7.55;;;4.07;;
53931;SDS011;39844;52.496;13.482;2023-05-20T12:26:28;9.10;;;4.47;;
53931;SDS011;39844;52.496;13.482;2023-05-20T12:28:53;4.82;;;4.28;;
53931;SDS011;39844;52.496;13.482;2023-05-20T12:31:19;5.63;;;4.13;;
53931;SDS011;39844;52.496;13.482;2023-05-20T12:33:45;4.93;;;3.88;;
53931;SDS011;39844;52.496;13.482;2023-05-20T12:36:11;7.30;;;4.10;;
53931;SDS011;39844;52.496;13.482;2023-05-20T12:38:37;5.28;;;3.85;;
53931;SDS011;39844;52.496;13.482;2023-05-20T12:41:02;5.18;;;3.83;;
53931;SDS011;39844;52.496;13.482;2023-05-20T12:43:27;4.95;;;4.30;;
53931;SDS011;39844;52.496;13.482;2023-05-20T12:45:52;6.43;;;4.22;;
53931;SDS011;39844;52.496;13.482;2023-05-20T12:48:21;5.75;;;4.13;;
53931;SDS011;39844;52.496;13.482;2023-05-20T12:50:46;6.60;;;4.05;;
53931;SDS011;39844;52.496;13.482;2023-05-20T12:53:12;4.72;;;3.90;;
53931;SDS011;39844;52.496;13.482;2023-05-20T12:55:37;5.00;;;3.90;;
53931;SDS011;39844;52.496;13.482;2023-05-20T12:58:02;4.63;;;3.65;;
53931;SDS011;39844;52.496;13.482;2023-05-20T13:00:28;5.25;;;4.03;;
53931;SDS011;39844;52.496;13.482;2023-05-20T13:02:53;4.75;;;3.75;;
53931;SDS011;39844;52.496;13.482;2023-05-20T13:05:18;5.18;;;4.20;;
53931;SDS011;39844;52.496;13.482;2023-05-20T13:07:43;6.15;;;4.00;;
53931;SDS011;39844;52.496;13.482;2023-05-20T13:10:09;4.88;;;3.70;;
53931;SDS011;39844;52.496;13.482;2023-05-20T13:12:35;3.92;;;3.63;;
53931;SDS011;39844;52.496;13.482;2023-05-20T13:15:01;9.20;;;3.60;;
53931;SDS011;39844;52.496;13.482;2023-05-20T13:17:27;4.32;;;3.92;;
53931;SDS011;39844;52.496;13.482;2023-05-20T13:19:52;4.15;;;3.75;;
53931;SDS011;39844;52.496;13.482;2023-05-20T13:22:17;4.40;;;4.00;;
53931;SDS011;39844;52.496;13.482;2023-05-20T13:24:42;5.30;;;3.97;;
53931;SDS011;39844;52.496;13.482;2023-05-20T13:27:08;4.35;;;3.88;;
53931;SDS011;39844;52.496;13.482;2023-05-20T13:29:33;4.18;;;3.40;;
53931;SDS011;39844;52.496;13.482;2023-05-20T13:31:58;4.75;;;4.25;;
53931;SDS011;39844;52.496;13.482;2023-05-20T13:34:24;4.20;;;3.80;;
53931;SDS011;39844;52.496;13.482;2023-05-20T13:36:49;4.47;;;3.72;;
53931;SDS011;39844;52.496;13.482;2023-05-20T13:39:14;5.50;;;4.10;;
53931;SDS011;39844;52.496;13.482;2023-05-20T13:41:40;4.60;;;4.18;;
53931;SDS011;39844;52.496;13.482;2023-05-20T13:44:05;4.03;;;3.63;;
53931;SDS011;39844;52.496;13.482;2023-05-20T13:46:30;3.78;;;3.40;;
53931;SDS011;39844;52.496;13.482;2023-05-20T13:48:56;5.60;;;4.03;;
53931;SDS011;39844;52.496;13.482;2023-05-20T13:51:21;4.15;;;3.75;;
53931;SDS011;39844;52.496;13.482;2023-05-20T13:53:46;5.57;;;3.75;;
53931;SDS011;39844;52.496;13.482;2023-05-20T13:56:12;3.50;;;3.20;;
53931;SDS011;39844;52.496;13.482;2023-05-20T13:58:37;4.03;;;3.60;;
53931;SDS011;39844;52.496;13.482;2023-05-20T14:01:03;3.70;;;3.40;;
53931;SDS011;39844;52.496;13.482;2023-05-20T14:03:29;4.25;;;3.53;;
53931;SDS011;39844;52.496;13.482;2023-05-20T14:05:55;3.78;;;3.42;;
53931;SDS011;39844;52.496;13.482;2023-05-20T14:08:20;4.05;;;3.20;;
53931;SDS011;39844;52.496;13.482;2023-05-20T14:10:46;5.60;;;3.50;;
53931;SDS011;39844;52.496;13.482;2023-05-20T14:13:11;5.22;;;3.63;;
53931;SDS011;39844;52.496;13.482;2023-05-20T14:15:36;4.90;;;2.97;;
53931;SDS011;39844;52.496;13.482;2023-05-20T14:18:01;8.02;;;3.92;;
53931;SDS011;39844;52.496;13.482;2023-05-20T14:20:27;3.35;;;3.10;;
53931;SDS011;39844;52.496;13.482;2023-05-20T14:22:52;3.28;;;3.08;;
53931;SDS011;39844;52.496;13.482;2023-05-20T14:25:17;4.65;;;3.72;;
53931;SDS011;39844;52.496;13.482;2023-05-20T14:27:43;6.82;;;3.67;;
53931;SDS011;39844;52.496;13.482;2023-05-20T14:30:09;4.10;;;3.33;;
53931;SDS011;39844;52.496;13.482;2023-05-20T14:32:34;5.45;;;3.60;;
53931;SDS011;39844;52.496;13.482;2023-05-20T14:35:00;4.65;;;3.72;;
53931;SDS011;39844;52.496;13.482;2023-05-20T14:37:25;4.32;;;3.28;;